Terminal Aerodrome Forecast
Issued by NWS Cleveland, OH

Home | Current Version | Previous Version | Graphics & Text | Print | Product List | Glossary On
Versions: 1 2 3 4 5 6 7 8 9 10 11 12 13 14 15 16 17 18 19 20 21 22 23 24 25 26
000
FTUS41 KCLE 191700
TAFCAK
TAF
KCAK 191740Z 1918/2018 VRB05KT P6SM SCT045
      TEMPO 1918/1922 BKN045
     FM200200 18004KT P6SM VCSH SCT045 BKN120
      TEMPO 2002/2005 4SM TSRA BR BKN035CB
     FM200500 18004KT 6SM BR VCSH SCT025 BKN035
     FM200900 18004KT 5SM BR SCT025 BKN080
      TEMPO 2009/2013 3SM BR SCT025 BKN080
     FM201400 20006KT 6SM HZ SCT035 BKN120
     FM201600 20006KT P6SM BKN045=

USA.gov is the U.S. government's official web portal to all federal, state and local government web resources and services.